Hlavní strana
METAR-TAF:

METAR-TAF

Letiště :

Mitiga International Airport

Tripolis, Libye

zeměpisná šířka: 32-54N, zeměpisná délka: 13-17E, výška: 11 m

METAR: chybějící

Čas: 21:44 (19:44 UTC)

Předpověď počasí

Zpráva byla vytvořena před 2 hodinami a 44 minutami, v 17:00 UTC
Předpověď platná od 05 v 18 UTC do 06 v 18 UTC
vítr z různých směrů 2 kt
Viditelnost 10 km a více
Žádná oblačnost pod 1500 m, nevyskytují se cumulonimby.
Pravděpodobnost 40%
od 06 v 03 UTC do 06 v 06 UTC
Viditelnost: 5000 m
kouřmo
Změna
od 06 v 10 UTC do 06 v 12 UTC
Severoseverovýchodní vítr 10 kt

TAF: HLLM 051700Z 0518/0618 VRB02KT CAVOK PROB40 0603/0606 5000 BR NSC BECMG 0610/0612 03010KT

Stav a předpovědi počasí z více než 4 000 letišť (zprávy METAR a TAF).

Červené a žluté tečky na mapě představují dostupné meteorologické stanice.

Když kurzor umístíte na tečku, zobrazí se název stanice.

Pak kliknutím zobrazíte stav a předpověď počasí.

Chcete-li změnit mapu, kliknutím na zelené tlačítko se znaménkem +mapu přiblížíte, kliknutím na zelené tlačítko se znaménkem – mapu oddálíte a kliknutím na zelené šipky přejdete na sousední mapy.


METAR-TAF: